aviador You're here:

SAME Decoded Metar

MENDOZA in ARGENTINA
Report Time2017-09-20 15:00:00
UTC Time2017-09-20 16:34:16
Flight Rules Old
Wind180° at 14 kt
W.Decomp.*RWY 18: 14.0 kt HW 0.2 kt LCW
W.Rank180° ranks 1
Current wind is above 180° avg. (5.6)
Visibility9999 m
Phenomena:N/A
Clouds:N/A
Expected CloudBase > 5,200 ft AGL from Temp-Dew spread
CeilingNone
Temp13°C (ISA +3)
Dew Point00°C (41% RH)
AAT6.0°C
QNH1025 hPa
Density Alt2,303 ft
Elevation2,310 ft
Report Wrong Elevation
Raw Report
METAR SAME 201500Z 18014KT CAVOK 13/00 Q1025=

Extra information for SAME:More info

Metar Taf Metar & Taf Last 4 Metars F.Rules Stats Wind Profile Meteogram Temp Stats Airport Information Weather charts Add Link Nearby VenuesMetar ALERT Operation Metar Decoded Social comments